Latest Weather Observations for Lord Howe Island

IDN60801

Issued at 4:03 pm EST Monday 2 May 2016 (issued every 30 minutes, with the page automatically refreshed every 10 minutes)

About weather observations | Map of weather stations | Latest weather observations for NSW | Other Formats
Station Details ID: 200839 Name: LORD HOWE ISLAND AERO Lat: -31.54 Lon: 159.08 Height: 5.0 m
Data from the previous 72 hours. | See also: Recent months at Lord Howe Island
Date/Time
EST
Temp
°C
App
Temp
°C
Dew
Point
Rel
Hum
%
Delta-T
°C
Wind Press
QNH
hPa
Press
MSL
hPa
Rain
since 9 am
mm
Dir
 
Spd
km/h
Gust
km/h
Spd
kts
Gust
kts
02/04:00pm 23.6 25.5 18.5 73 3.2 W 6 9 3 5 1015.7 - 0.0
02/03:30pm 23.8 25.2 18.6 72 3.3 W 9 13 5 7 1015.6 - 0.0
02/03:00pm 23.9 24.2 19.7 77 2.7 W 17 20 9 11 1015.6 - 0.0
02/02:30pm 23.7 25.1 19.6 78 2.6 W 11 15 6 8 1015.6 1015.6 0.0
02/02:00pm 23.7 25.1 19.6 78 2.6 W 11 13 6 7 1015.8 - 0.0
02/01:30pm 23.4 24.6 19.8 80 2.3 W 13 17 7 9 1016.1 - 0.0
02/01:00pm 23.7 24.1 19.8 79 2.5 W 17 20 9 11 1016.4 - 0.0
02/12:30pm 24.9 24.7 19.4 71 3.5 W 19 22 10 12 1016.7 - 0.0
02/12:00pm 24.7 24.4 19.2 71 3.5 W 19 22 10 12 1016.9 - 0.0
02/11:30am 23.9 24.8 19.2 75 3.0 WSW 13 19 7 10 1017.4 1017.4 0.0
02/11:00am 23.1 22.8 19.2 79 2.5 W 19 24 10 13 1017.7 - 0.0
02/10:30am 24.5 25.7 19.8 75 3.0 W 13 17 7 9 1018.1 - 0.0
02/10:00am 24.1 25.1 19.4 75 3.0 W 13 19 7 10 1018.4 - 0.0
02/09:30am 23.7 24.4 18.8 74 3.1 W 13 17 7 9 1018.7 - 0.0
02/09:00am 22.7 23.4 18.9 79 2.4 W 13 17 7 9 1018.9 - 0.0
02/08:30am 24.6 25.4 19.8 74 3.1 W 15 22 8 12 1018.8 1018.8 1.8
02/08:00am 24.0 24.8 19.1 74 3.1 W 13 19 7 10 1018.7 - 1.8
02/07:30am 22.8 22.8 19.7 83 2.0 W 19 26 10 14 1018.7 - 1.8
02/07:04am 22.3 22.6 19.6 85 1.7 W 17 24 9 13 1018.4 - 1.8
02/07:00am 22.3 23.3 19.5 84 1.8 W 13 24 7 13 1018.4 - 1.8
02/06:30am 21.9 22.8 19.2 85 1.7 W 13 15 7 8 1018.0 - 1.8
02/06:00am 22.0 23.5 18.8 82 2.0 WNW 9 17 5 9 1017.7 - 1.8
02/05:43am 22.1 23.2 18.8 81 2.1 W 11 15 6 8 1017.7 - 1.8
02/05:30am 22.1 22.2 19.1 83 1.9 W 17 24 9 13 1017.7 1017.7 1.8
02/05:00am 21.9 22.0 19.2 85 1.7 W 17 24 9 13 1017.2 - 1.8
02/04:43am 21.8 23.5 18.6 82 2.0 WNW 7 13 4 7 1017.1 - 1.8
02/04:30am 21.6 22.9 18.4 82 2.0 W 9 15 5 8 1017.1 - 1.8
02/04:00am 21.7 22.6 18.3 81 2.1 WNW 11 15 6 8 1017.2 - 1.8
02/03:30am 21.3 22.4 17.0 76 2.6 NNW 7 9 4 5 1017.0 - 1.8
02/03:00am 21.6 22.3 17.9 79 2.3 NNW 11 24 6 13 1017.0 - 1.8
02/02:30am 21.2 21.9 18.0 82 2.0 N 11 22 6 12 1016.9 1016.9 1.8
02/02:00am 21.4 20.7 16.3 72 3.1 N 15 28 8 15 1016.9 - 1.8
02/01:30am 21.8 21.4 17.1 74 2.9 NNE 15 28 8 15 1016.6 - 1.8
02/01:00am 22.5 22.5 19.7 84 1.8 NNE 19 28 10 15 1016.6 - 1.8
02/12:56am 22.6 23.0 19.8 84 1.8 NNE 17 30 9 16 1016.7 - 1.8
02/12:38am 22.7 22.9 20.5 87 1.4 N 20 33 11 18 1016.9 - 1.8
02/12:33am 22.6 22.9 20.3 87 1.5 N 19 26 10 14 1017.1 - 1.8
02/12:30am 22.7 22.9 20.2 86 1.6 N 19 37 10 20 1017.3 - 1.8
02/12:22am 22.5 24.3 20.3 87 1.4 N 11 20 6 11 1017.7 - 1.8
02/12:11am 22.4 23.5 20.5 89 1.2 N 15 26 8 14 1018.0 - 1.8
02/12:00am 22.1 22.3 20.1 88 1.3 NNE 19 43 10 23 1018.0 - 1.6
 
Date/Time
EST
Temp
°C
App
Temp
°C
Dew
Point
Rel
Hum
%
Delta-T
°C
Wind Press
QNH
hPa
Press
MSL
hPa
Rain
since 9 am
mm
Dir
 
Spd
km/h
Gust
km/h
Spd
kts
Gust
kts
01/11:56pm 22.0 22.0 19.8 87 1.4 NNE 19 43 10 23 1018.1 - 1.6
01/11:30pm 22.6 23.4 19.9 85 1.7 N 15 28 8 15 1018.7 1018.7 0.8
01/11:00pm 22.7 23.1 19.9 84 1.8 N 17 28 9 15 1019.0 - 0.6
01/10:36pm 22.9 24.6 19.4 80 2.2 N 9 15 5 8 1019.4 - 0.4
01/10:30pm 22.9 23.9 19.4 80 2.2 N 13 26 7 14 1019.4 - 0.4
01/10:25pm 23.0 23.3 19.6 81 2.2 N 17 26 9 14 1019.4 - 0.4
01/10:00pm 22.9 23.0 19.1 79 2.4 N 17 26 9 14 1019.3 - 0.4
01/09:30pm 23.0 23.4 19.1 78 2.5 NNE 15 24 8 13 1019.5 - 0.4
01/09:12pm 23.0 22.7 19.2 79 2.4 N 19 28 10 15 1019.6 - 0.4
01/09:02pm 23.0 23.1 19.2 79 2.4 N 17 30 9 16 1019.6 - 0.4
01/09:00pm 23.0 23.1 19.1 78 2.5 N 17 26 9 14 1019.6 - 0.4
01/08:56pm 23.0 23.1 19.2 79 2.4 N 17 26 9 14 1019.6 - 0.4
01/08:30pm 23.0 23.4 19.1 78 2.5 N 15 30 8 16 1019.4 1019.4 0.4
01/08:25pm 23.1 23.6 19.2 79 2.5 N 15 26 8 14 1019.4 - 0.4
01/08:20pm 23.0 23.5 19.2 79 2.4 N 15 26 8 14 1019.3 - 0.4
01/08:08pm 23.1 23.3 19.3 79 2.4 N 17 28 9 15 1019.3 - 0.4
01/08:00pm 23.0 23.4 19.1 78 2.5 N 15 28 8 15 1019.3 - 0.4
01/07:30pm 23.0 23.4 18.9 78 2.6 N 15 24 8 13 1019.4 - 0.4
01/07:00pm 23.0 23.4 18.9 78 2.6 N 15 30 8 16 1019.3 - 0.4
01/06:30pm 22.9 23.7 19.1 79 2.4 N 13 22 7 12 1019.5 - 0.4
01/06:00pm 22.9 23.1 18.6 77 2.7 N 15 22 8 12 1019.4 - 0.4
01/05:30pm 22.8 22.2 18.5 77 2.7 N 19 32 10 17 1019.0 1019.0 0.4
01/05:00pm 22.8 22.8 18.2 75 2.9 N 15 33 8 18 1018.7 - 0.4
01/04:30pm 22.9 23.0 18.3 75 2.9 N 15 30 8 16 1018.6 - 0.4
01/04:00pm 23.3 23.1 18.5 74 3.0 N 17 32 9 17 1018.8 - 0.4
01/03:30pm 23.3 23.5 18.5 74 3.0 NNE 15 24 8 13 1018.6 - 0.4
01/03:00pm 24.1 23.9 18.6 71 3.5 N 17 28 9 15 1018.5 - 0.4
01/02:30pm 23.7 23.9 18.6 73 3.2 NNE 15 32 8 17 1018.8 1018.8 0.4
01/02:00pm 24.3 25.0 18.8 71 3.5 NNE 13 24 7 13 1018.8 - 0.4
01/01:30pm 24.6 24.9 18.8 70 3.7 NNE 15 28 8 15 1018.8 - 0.4
01/01:00pm 24.6 25.5 19.3 72 3.4 NNE 13 24 7 13 1019.2 - 0.4
01/12:39pm 24.8 25.3 19.3 71 3.5 NNE 15 26 8 14 1019.5 - 0.4
01/12:30pm 25.1 25.7 19.5 71 3.6 NNE 15 28 8 15 1019.6 - 0.4
01/12:28pm 24.9 25.4 19.3 71 3.6 NNE 15 28 8 15 1019.6 - 0.4
01/12:00pm 24.8 25.9 19.7 73 3.3 NNE 13 24 7 13 1019.8 - 0.4
01/11:38am 24.2 25.8 19.2 73 3.2 N 9 15 5 8 1020.3 - 0.4
01/11:30am 24.6 25.5 19.3 72 3.4 N 13 22 7 12 1020.5 1020.5 0.4
01/11:27am 24.0 24.5 19.3 75 3.0 N 15 33 8 18 1020.6 - 0.4
01/11:24am 24.3 24.9 19.5 74 3.1 N 15 33 8 18 1020.6 - 0.4
01/11:00am 24.0 24.1 19.1 74 3.1 N 17 30 9 16 1020.9 - 0.4
01/10:48am 23.7 24.0 18.8 74 3.1 N 15 30 8 16 1021.1 - 0.4
01/10:30am 24.5 25.4 19.3 73 3.3 NNE 13 22 7 12 1021.2 - 0.4
01/10:00am 24.3 24.3 18.9 72 3.4 NNE 17 30 9 16 1021.6 - 0.4
01/09:30am 23.7 24.9 19.1 75 2.9 N 11 19 6 10 1021.6 - 0.4
01/09:18am 23.5 24.9 18.7 74 3.0 N 9 17 5 9 1021.4 - 0.4
01/09:07am 21.8 22.7 18.4 81 2.1 N 11 24 6 13 1022.0 - 0.4
01/09:00am 22.2 22.2 18.2 78 2.5 NNW 15 24 8 13 1022.0 - 0.2
01/08:30am 23.8 24.5 17.1 66 4.1 NE 9 19 5 10 1021.5 1021.5 0.8
01/08:00am 21.9 21.1 18.4 80 2.2 N 20 28 11 15 1022.1 - 0.8
01/07:30am 22.6 22.5 18.8 79 2.4 NNE 17 30 9 16 1021.5 - 0.8
01/07:00am 22.9 23.2 17.9 73 3.1 NNE 13 22 7 12 1021.1 - 0.8
01/06:30am 22.5 22.5 18.2 76 2.7 N 15 28 8 15 1021.1 - 0.8
01/06:00am 22.0 21.9 19.5 86 1.6 NE 19 24 10 13 1020.9 - 0.8
01/05:30am 21.6 21.3 19.1 86 1.6 NNE 19 24 10 13 1020.6 1020.6 0.8
01/05:00am 21.6 21.9 18.7 83 1.8 NNE 15 22 8 12 1020.8 - 0.8
01/04:30am 21.7 21.5 18.5 82 2.0 NNE 17 22 9 12 1020.8 - 0.8
01/04:00am 21.5 20.7 18.5 83 1.9 NE 20 24 11 13 1020.8 - 0.8
01/03:35am 21.6 21.4 18.4 82 2.0 NE 17 22 9 12 1021.0 - 0.8
01/03:30am 21.7 21.1 18.8 83 1.8 NE 20 28 11 15 1021.2 - 0.8
01/03:13am 21.7 20.2 18.5 82 2.0 NE 24 30 13 16 1020.8 - 0.8
01/03:00am 21.7 20.3 18.7 83 1.9 NNE 24 32 13 17 1020.8 - 0.8
01/02:30am 21.8 20.0 17.9 78 2.4 NE 24 30 13 16 1020.8 1020.8 0.8
01/02:00am 21.8 20.4 18.9 83 1.8 NE 24 28 13 15 1021.1 - 0.8
01/01:30am 21.7 20.5 18.3 81 2.1 NNE 22 28 12 15 1021.3 - 0.8
01/01:00am 21.4 19.8 18.3 82 1.9 NE 24 28 13 15 1021.5 - 0.8
01/12:30am 21.4 20.2 18.5 83 1.8 NE 22 28 12 15 1021.8 - 0.8
01/12:00am 21.2 20.1 18.6 85 1.6 NE 22 28 12 15 1021.9 - 0.8
 
Date/Time
EST
Temp
°C
App
Temp
°C
Dew
Point
Rel
Hum
%
Delta-T
°C
Wind Press
QNH
hPa
Press
MSL
hPa
Rain
since 9 am
mm
Dir
 
Spd
km/h
Gust
km/h
Spd
kts
Gust
kts
30/11:30pm 21.3 20.2 18.6 84 1.7 NE 22 32 12 17 1022.1 1022.1 0.8
30/11:00pm 21.8 20.6 17.6 77 2.6 NNE 20 28 11 15 1022.3 - 0.8
30/10:30pm 21.5 20.7 18.5 83 1.9 NE 20 28 11 15 1022.6 - 0.8
30/10:19pm 21.5 20.3 18.5 83 1.9 NE 22 28 12 15 1022.7 - 0.8
30/10:02pm 21.5 20.7 18.5 83 1.9 NE 20 24 11 13 1022.6 - 0.8
30/10:00pm 21.5 20.8 18.6 83 1.8 NE 20 24 11 13 1022.7 - 0.8
30/09:30pm 21.4 20.5 18.2 82 2.0 ENE 20 24 11 13 1022.8 - 0.8
30/09:00pm 21.3 20.6 18.2 82 1.9 NE 19 22 10 12 1023.0 - 0.8
30/08:30pm 21.2 20.4 18.0 82 2.0 ENE 19 22 10 12 1022.8 1022.8 0.8
30/08:00pm 21.2 20.8 18.1 82 1.9 NNE 17 22 9 12 1023.0 - 0.8
30/07:30pm 21.5 21.6 18.3 82 2.0 NE 15 20 8 11 1023.0 - 0.8
30/07:00pm 21.5 20.7 18.1 81 2.1 ENE 19 24 10 13 1022.7 - 0.8
30/06:30pm 21.4 20.4 18.0 81 2.1 ENE 20 24 11 13 1022.8 - 0.8
30/06:00pm 20.9 20.4 16.9 78 2.4 ESE 15 20 8 11 1022.5 - 0.8
30/05:30pm 20.3 20.2 15.9 76 2.6 E 11 15 6 8 1022.4 1022.4 0.8
30/05:00pm 20.1 19.1 15.5 75 2.7 E 15 20 8 11 1022.2 - 0.8
30/04:39pm 19.2 19.5 17.0 87 1.3 E 11 17 6 9 1022.4 - 0.8
30/04:30pm 19.0 19.1 17.4 90 1.0 E 13 19 7 10 1022.4 - 0.8
30/04:18pm 19.0 16.8 16.8 87 1.3 E 24 28 13 15 1022.5 - 0.6
30/04:09pm 19.5 14.6 17.4 88 1.3 NE 39 48 21 26 1022.4 - 0.2
30/04:00pm 20.5 16.9 17.6 83 1.8 NE 33 43 18 23 1022.2 - 0.0
30/03:30pm 22.3 21.4 18.1 77 2.6 NE 20 24 11 13 1021.7 - 0.0
30/03:00pm 22.1 21.5 18.8 81 2.1 NE 20 26 11 14 1021.9 - 0.0
30/02:30pm 22.6 20.8 17.8 74 3.0 NE 24 28 13 15 1022.1 1022.1 0.0
30/02:00pm 22.7 21.9 18.0 75 2.9 NE 19 24 10 13 1022.1 - 0.0
30/01:30pm 22.5 22.0 17.8 75 2.9 NE 17 20 9 11 1022.2 - 0.0
30/01:00pm 22.3 21.7 17.6 75 2.9 NE 17 20 9 11 1022.3 - 0.0
30/12:30pm 22.5 20.5 17.3 72 3.2 NE 24 32 13 17 1022.5 - 0.0
30/12:00pm 22.4 20.3 18.1 76 2.7 NE 26 30 14 16 1022.9 - 0.0
30/11:30am 21.3 19.1 18.6 84 1.7 NNE 28 33 15 18 1023.6 1023.6 0.0
30/11:00am 23.3 20.8 17.1 68 3.8 ENE 26 32 14 17 1024.0 - 0.0
30/10:30am 23.8 21.7 17.1 66 4.1 ENE 24 28 13 15 1024.3 - 0.0
30/10:00am 23.5 21.1 16.4 64 4.3 ENE 24 30 13 16 1024.4 - 0.0
30/09:30am 23.7 21.7 16.5 64 4.4 ENE 22 28 12 15 1024.7 - 0.0
30/09:00am 22.8 20.9 15.8 64 4.2 NE 20 26 11 14 1025.0 - 0.0
30/08:30am 22.7 21.1 16.1 66 4.0 ENE 19 24 10 13 1025.1 1025.1 0.0
30/08:00am 22.4 20.0 16.4 69 3.6 ENE 24 28 13 15 1024.8 - 0.0
30/07:30am 22.1 19.9 15.9 68 3.7 ENE 22 30 12 16 1024.6 - 0.0
30/07:00am 22.1 19.8 15.7 67 3.8 ENE 22 28 12 15 1024.4 - 0.0
30/06:30am 22.0 20.4 16.4 70 3.4 NE 20 24 11 13 1024.2 - 0.0
30/06:00am 21.6 19.3 15.7 69 3.5 NE 22 28 12 15 1023.8 - 0.0
30/05:30am 21.5 19.5 16.4 72 3.1 NE 22 28 12 15 1023.6 1023.6 0.0
30/05:00am 21.6 20.0 16.6 73 3.0 NE 20 26 11 14 1023.4 - 0.0
30/04:30am 21.6 20.1 16.8 74 2.9 NE 20 26 11 14 1023.4 - 0.0
30/04:00am 21.4 20.1 16.8 75 2.8 NE 19 22 10 12 1023.4 - 0.0
30/03:30am 21.6 19.9 16.3 72 3.2 NE 20 24 11 13 1023.3 - 0.0
30/03:00am 21.5 19.9 16.4 72 3.1 ENE 20 26 11 14 1023.4 - 0.0
30/02:30am 21.6 20.0 16.5 73 3.1 ENE 20 26 11 14 1023.6 1023.6 0.0
30/02:00am 21.6 20.1 16.3 72 3.2 ENE 19 22 10 12 1023.8 - 0.0
30/01:30am 21.5 20.4 17.2 76 2.6 ENE 19 22 10 12 1023.9 - 0.0
30/01:00am 21.5 20.5 16.5 73 3.0 ENE 17 22 9 12 1024.2 - 0.0
30/12:30am 21.5 20.8 17.4 77 2.5 ENE 17 20 9 11 1024.5 - 0.0
30/12:00am 21.4 20.2 17.1 76 2.6 NE 19 22 10 12 1024.7 - 0.0
 
Date/Time
EST
Temp
°C
App
Temp
°C
Dew
Point
Rel
Hum
%
Delta-T
°C
Wind Press
QNH
hPa
Press
MSL
hPa
Rain
since 9 am
mm
Dir
 
Spd
km/h
Gust
km/h
Spd
kts
Gust
kts
29/11:30pm 21.5 20.5 16.7 74 2.9 ENE 17 20 9 11 1025.3 1025.3 0.0
29/11:00pm 21.6 19.7 16.8 74 2.9 NE 22 26 12 14 1025.1 - 0.0
29/10:30pm 21.6 20.1 16.3 72 3.2 NE 19 24 10 13 1025.4 - 0.0
29/10:00pm 21.6 20.4 17.0 75 2.8 NE 19 22 10 12 1025.4 - 0.0
29/09:30pm 21.7 19.6 16.2 71 3.3 ENE 22 28 12 15 1025.4 - 0.0
29/09:00pm 21.5 19.6 16.7 74 2.9 NE 22 28 12 15 1025.2 - 0.0
29/08:30pm 21.1 18.7 17.3 79 2.3 NE 26 30 14 16 1025.3 1025.3 0.0
29/08:00pm 21.7 19.3 18.3 81 2.1 ENE 28 35 15 19 1025.0 - 0.0
29/07:30pm 21.9 19.4 16.1 69 3.5 ENE 24 30 13 16 1025.1 - 0.0
29/07:00pm 21.8 18.7 14.6 63 4.2 E 24 32 13 17 1024.6 - 0.0
29/06:30pm 21.7 19.4 15.8 69 3.5 ENE 22 28 12 15 1024.6 - 0.0
29/06:00pm 21.7 20.2 16.2 71 3.3 ENE 19 24 10 13 1024.8 - 0.0
29/05:30pm 21.4 19.7 16.2 72 3.1 ENE 20 26 11 14 1024.5 1024.5 0.0
29/05:00pm 21.5 19.9 17.4 77 2.5 ENE 22 28 12 15 1024.1 - 0.0
29/04:30pm 22.1 20.3 15.6 66 3.9 ENE 19 24 10 13 1023.9 - 0.0
29/04:00pm 22.4 20.1 15.7 66 4.0 ENE 22 28 12 15 1024.0 - 0.0

Other Formats:

Comma delimited format used in spreadsheet applications
http://www.bom.gov.au/fwo/IDN60801/IDN60801.94995.axf

JavaScript Object Notation format (JSON) in row-major order
http://www.bom.gov.au/fwo/IDN60801/IDN60801.94995.json